createdAt,value
2023-03-28T00:04:13.297Z,2.73
2023-03-28T00:09:15.289Z,2.47
2023-03-28T00:14:17.448Z,2.50
2023-03-28T00:19:25.523Z,2.67
2023-03-28T00:24:28.190Z,2.53
2023-03-28T00:29:30.402Z,2.90
2023-03-28T00:34:34.194Z,2.07
2023-03-28T00:39:36.380Z,2.50
2023-03-28T00:44:46.949Z,2.33
2023-03-28T00:49:53.192Z,2.20
2023-03-28T00:54:57.816Z,2.40
2023-03-28T00:59:59.860Z,2.20
2023-03-28T01:05:05.137Z,2.53
2023-03-28T01:10:08.595Z,2.67
2023-03-28T01:15:12.213Z,2.53
2023-03-28T01:20:32.764Z,2.50
2023-03-28T01:26:14.109Z,2.63
2023-03-28T01:31:44.182Z,3.43
2023-03-28T01:37:12.057Z,3.70
2023-03-28T01:42:22.030Z,4.10
2023-03-28T01:47:28.400Z,4.43
2023-03-28T01:52:37.581Z,4.70
2023-03-28T01:57:47.247Z,3.83
2023-03-28T02:02:54.064Z,3.60
2023-03-28T02:07:58.951Z,3.40
2023-03-28T02:13:04.894Z,3.10
2023-03-28T02:18:11.413Z,3.10
2023-03-28T02:23:18.957Z,2.80
2023-03-28T02:28:22.833Z,3.20
2023-03-28T02:33:38.005Z,4.27
2023-03-28T02:38:48.374Z,3.90
2023-03-28T02:44:04.485Z,3.83
2023-03-28T02:49:35.108Z,2.40
2023-03-28T02:54:51.866Z,1.60
2023-03-28T02:59:57.282Z,1.27
2023-03-28T03:05:01.996Z,1.50
2023-03-28T03:10:07.025Z,2.03
2023-03-28T03:15:10.725Z,1.00
2023-03-28T03:20:13.050Z,1.07
2023-03-28T03:25:16.630Z,0.80
2023-03-28T03:30:19.020Z,1.10
2023-03-28T03:35:21.292Z,1.33
2023-03-28T03:40:25.056Z,1.00
2023-03-28T03:45:27.270Z,1.27
2023-03-28T03:50:29.469Z,1.50
2023-03-28T03:55:33.812Z,1.20
2023-03-28T04:00:37.985Z,1.40
2023-03-28T04:05:42.529Z,1.60
2023-03-28T04:10:47.402Z,2.07
2023-03-28T04:15:49.645Z,1.87
2023-03-28T04:20:56.369Z,2.13
2023-03-28T04:26:01.741Z,2.20
2023-03-28T04:31:04.608Z,3.20
2023-03-28T04:36:08.207Z,2.97
2023-03-28T04:41:11.468Z,3.00
2023-03-28T04:46:13.596Z,2.53
2023-03-28T04:51:15.920Z,3.40
2023-03-28T04:56:19.288Z,3.03
2023-03-28T05:01:22.784Z,3.43
2023-03-28T05:06:27.674Z,3.33
2023-03-28T05:11:31.350Z,4.20
2023-03-28T05:16:33.751Z,3.67
2023-03-28T05:21:36.132Z,4.40
2023-03-28T05:26:39.824Z,4.07
2023-03-28T05:31:42.133Z,4.17
2023-03-28T05:36:44.693Z,5.00
2023-03-28T05:41:48.229Z,5.27
2023-03-28T05:46:50.359Z,5.67
2023-03-28T05:51:52.925Z,5.83
2023-03-28T05:56:56.870Z,6.37
2023-03-28T06:01:58.902Z,6.10
2023-03-28T06:07:03.185Z,6.70
2023-03-28T06:12:07.714Z,6.80
2023-03-28T06:17:09.975Z,5.80
2023-03-28T06:22:12.297Z,6.50
2023-03-28T06:27:15.701Z,6.37
2023-03-28T06:32:19.384Z,6.40
2023-03-28T06:37:21.727Z,5.60
2023-03-28T06:42:25.315Z,5.63
2023-03-28T06:47:27.683Z,6.30
2023-03-28T06:52:29.857Z,7.27
2023-03-28T06:57:33.722Z,6.70
2023-03-28T07:02:36.127Z,9.37
2023-03-28T07:07:38.532Z,6.80
2023-03-28T07:12:42.369Z,6.90
2023-03-28T07:17:44.412Z,7.53
2023-03-28T07:22:46.750Z,6.57
2023-03-28T07:27:50.651Z,7.00
2023-03-28T07:33:01.798Z,5.87
2023-03-28T07:38:14.105Z,5.60
2023-03-28T07:43:18.310Z,5.57
2023-03-28T07:48:20.722Z,5.87
2023-03-28T07:53:22.998Z,6.30
2023-03-28T07:58:26.853Z,5.30
2023-03-28T08:03:29.139Z,4.73
2023-03-28T08:08:32.169Z,3.23
2023-03-28T08:13:35.669Z,3.07
2023-03-28T08:18:37.748Z,3.73
2023-03-28T08:23:40.177Z,3.60
2023-03-28T08:28:43.886Z,4.10
2023-03-28T08:33:48.716Z,3.73
2023-03-28T08:38:52.015Z,3.60
2023-03-28T08:44:19.905Z,3.20
2023-03-28T08:49:22.207Z,3.67
2023-03-28T08:54:31.613Z,3.57
2023-03-28T08:59:44.558Z,3.40
2023-03-28T09:04:47.104Z,3.47
2023-03-28T09:10:08.012Z,3.73
2023-03-28T09:15:48.108Z,3.40
2023-03-28T09:20:54.774Z,3.40
2023-03-28T09:26:02.017Z,3.07
2023-03-28T09:31:10.133Z,2.90
2023-03-28T09:36:15.003Z,2.70
2023-03-28T09:41:21.604Z,2.17
2023-03-28T09:46:31.744Z,2.10
2023-03-28T09:51:34.055Z,2.23
2023-03-28T09:56:39.534Z,2.17
2023-03-28T10:01:45.658Z,1.93
2023-03-28T10:06:49.564Z,1.67
2023-03-28T10:11:55.007Z,1.70
2023-03-28T10:16:59.080Z,1.60
2023-03-28T10:22:06.492Z,1.53
2023-03-28T10:27:16.405Z,1.60
2023-03-28T10:32:28.238Z,1.80
2023-03-28T10:37:32.554Z,1.20
2023-03-28T10:42:45.377Z,1.10
2023-03-28T10:47:50.940Z,1.00
2023-03-28T10:53:01.047Z,1.10
2023-03-28T10:58:09.122Z,1.50
2023-03-28T11:03:27.377Z,1.10
2023-03-28T11:08:40.080Z,0.93
2023-03-28T11:13:49.675Z,1.00
2023-03-28T11:19:08.793Z,0.90
2023-03-28T11:24:25.395Z,1.20
2023-03-28T11:29:43.599Z,1.20
2023-03-28T11:34:59.142Z,0.90
2023-03-28T11:40:07.549Z,1.23
2023-03-28T11:45:37.433Z,1.20
2023-03-28T11:50:51.594Z,1.10
2023-03-28T11:55:59.609Z,1.30
2023-03-28T12:01:08.288Z,1.10
2023-03-28T12:06:18.257Z,1.23
2023-03-28T12:11:26.811Z,1.30
2023-03-28T12:16:35.438Z,1.40
2023-03-28T12:21:43.503Z,1.20
2023-03-28T12:27:03.546Z,1.17
2023-03-28T12:32:19.679Z,0.90
2023-03-28T12:37:30.320Z,0.97
2023-03-28T12:42:32.645Z,1.30
2023-03-28T12:47:38.792Z,1.17
2023-03-28T12:52:46.753Z,0.90
2023-03-28T12:57:49.876Z,0.97
2023-03-28T13:03:10.234Z,1.00
2023-03-28T13:08:23.015Z,1.10
2023-03-28T13:13:31.807Z,1.10
2023-03-28T13:18:35.171Z,1.00
2023-03-28T13:23:48.028Z,0.83
2023-03-28T13:28:52.172Z,1.13
2023-03-28T13:33:58.727Z,1.20
2023-03-28T13:39:22.514Z,1.10
2023-03-28T13:44:29.858Z,0.93
2023-03-28T13:49:42.653Z,0.77
2023-03-28T13:54:54.152Z,0.70
2023-03-28T13:59:59.786Z,0.67
2023-03-28T14:05:15.619Z,0.90
2023-03-28T14:10:30.807Z,1.00
2023-03-28T14:15:37.417Z,0.70
2023-03-28T14:20:40.476Z,0.80
2023-03-28T14:25:44.508Z,0.70
2023-03-28T14:30:46.783Z,0.70
2023-03-28T14:35:58.163Z,0.60
2023-03-28T14:41:10.314Z,0.60
2023-03-28T14:46:12.956Z,0.70
2023-03-28T14:51:16.065Z,0.60
2023-03-28T14:56:24.607Z,0.60
2023-03-28T15:01:28.267Z,1.37
2023-03-28T15:06:30.825Z,0.57
2023-03-28T15:11:37.347Z,0.70
2023-03-28T15:16:43.065Z,0.90
2023-03-28T15:21:53.095Z,0.60
2023-03-28T15:26:59.347Z,0.50
2023-03-28T15:32:05.314Z,0.60
2023-03-28T15:37:08.738Z,0.60
2023-03-28T15:42:39.148Z,0.30
2023-03-28T15:47:42.172Z,0.70
2023-03-28T15:52:45.226Z,0.80
2023-03-28T15:57:49.559Z,0.70
2023-03-28T16:02:51.918Z,0.60
2023-03-28T16:07:54.504Z,0.67
2023-03-28T16:12:58.463Z,0.47
2023-03-28T16:18:00.832Z,0.60
2023-03-28T16:23:03.233Z,0.50
2023-03-28T16:28:07.503Z,0.60
2023-03-28T16:33:09.599Z,0.70
2023-03-28T16:38:12.977Z,0.60
2023-03-28T16:43:17.158Z,0.70
2023-03-28T16:48:19.794Z,0.60
2023-03-28T16:53:22.441Z,0.70
2023-03-28T16:58:29.051Z,0.60
2023-03-28T17:03:32.412Z,0.67
2023-03-28T17:08:34.945Z,0.60
2023-03-28T17:13:39.576Z,0.63
2023-03-28T17:18:42.306Z,0.40
2023-03-28T17:23:46.935Z,0.50
2023-03-28T17:28:52.734Z,1.20
2023-03-28T17:33:57.259Z,0.90
2023-03-28T17:39:00.545Z,1.23
2023-03-28T17:44:05.707Z,0.90
2023-03-28T17:49:10.018Z,0.60
2023-03-28T17:54:13.786Z,0.70
2023-03-28T17:59:19.655Z,0.60
2023-03-28T18:04:24.120Z,0.80
2023-03-28T18:09:28.299Z,1.70
2023-03-28T18:14:33.245Z,1.00
2023-03-28T18:19:37.117Z,0.77
2023-03-28T18:24:39.801Z,0.90
2023-03-28T18:29:49.179Z,0.77
2023-03-28T18:34:53.256Z,0.50
2023-03-28T18:39:57.069Z,0.70
2023-03-28T18:45:06.639Z,0.70
2023-03-28T18:50:13.304Z,0.80
2023-03-28T18:55:16.990Z,0.83
2023-03-28T19:00:23.410Z,0.80
2023-03-28T19:05:27.018Z,0.80
2023-03-28T19:10:31.010Z,0.90
2023-03-28T19:15:36.176Z,0.80
2023-03-28T19:20:43.504Z,0.70
2023-03-28T19:25:47.098Z,0.70
2023-03-28T19:31:00.633Z,1.07
2023-03-28T19:36:06.609Z,0.87
2023-03-28T19:41:16.672Z,0.60
2023-03-28T19:46:28.109Z,0.90
2023-03-28T19:51:36.306Z,1.10
2023-03-28T19:56:40.854Z,0.50
2023-03-28T20:01:46.145Z,0.70
2023-03-28T20:06:50.899Z,0.50
2023-03-28T20:11:54.549Z,0.70
2023-03-28T20:16:59.961Z,0.60
2023-03-28T20:22:02.706Z,0.53
2023-03-28T20:27:06.618Z,0.70
2023-03-28T20:32:13.511Z,0.57
2023-03-28T20:37:18.162Z,0.60
2023-03-28T20:42:22.115Z,0.67
2023-03-28T20:47:29.054Z,0.40
2023-03-28T20:52:31.445Z,0.33
2023-03-28T20:57:36.094Z,0.50
2023-03-28T21:02:39.905Z,0.30
2023-03-28T21:07:44.166Z,0.30
2023-03-28T21:12:47.610Z,0.40
2023-03-28T21:17:53.834Z,0.37
2023-03-28T21:22:56.775Z,0.40
2023-03-28T21:27:59.477Z,0.50
2023-03-28T21:33:03.988Z,0.50
2023-03-28T21:38:06.392Z,0.40
2023-03-28T21:43:08.786Z,0.53
2023-03-28T21:48:12.822Z,0.30
2023-03-28T21:53:14.938Z,0.30
2023-03-28T21:58:17.517Z,0.30
2023-03-28T22:03:22.223Z,0.50
2023-03-28T22:08:25.128Z,0.23
2023-03-28T22:13:29.167Z,0.30
2023-03-28T22:18:34.100Z,0.40
2023-03-28T22:23:36.754Z,0.30
2023-03-28T22:28:39.273Z,0.23
2023-03-28T22:33:42.804Z,0.33
2023-03-28T22:38:45.415Z,0.20
2023-03-28T22:43:48.100Z,0.30
2023-03-28T22:48:54.561Z,0.30
2023-03-28T22:54:00.560Z,0.40
2023-03-28T22:59:02.664Z,0.43
2023-03-28T23:04:06.897Z,0.40
2023-03-28T23:09:09.777Z,0.30
2023-03-28T23:14:12.384Z,0.60
2023-03-28T23:19:16.484Z,0.50
2023-03-28T23:24:18.965Z,0.50
2023-03-28T23:29:21.588Z,0.40
2023-03-28T23:34:25.574Z,0.37
2023-03-28T23:39:27.995Z,0.23
2023-03-28T23:44:30.955Z,0.57
2023-03-28T23:49:34.576Z,0.20
2023-03-28T23:54:37.369Z,0.40
2023-03-28T23:59:39.406Z,0.50
